Boutte, LA (70039)

1:08 AM CST on November 27, 2014 (GMT -0600)
Kirk Street | Change Station
CLOSE
Current Station
Personal Weather Station
Location: Paradis, LA
Elevation: 10 ft
Nearby Weather Stations

Elev 10 ft 29.88 °N, 90.43 °W | Updated 5 seconds ago

Clear
Clear
55.4 °F
Feels Like 55.4 °F
N
4.6
Wind Variable Wind from WNW
Gusts 4.6 mph

Today
High -- | Low -- °F
--% Chance of Precip.
Yesterday
High -- | Low -- °F
Precip. -- in
6:36 AM 5:01 PM
Waxing Crescent, 26% visible
Pressure 30.29 in
Visibility 10.0 miles
Clouds Clear
Dew Point 47 °F
Humidity 73%
Rainfall 0.00 in
Snow Depth Not available.
UV 0 out of 12
Pollen 3.00 out of 12
Air Quality Not available.
Flu Activity Not available.
METAR KMSY 270653Z 25009KT 10SM CLR 13/09 A3028 RMK AO2 SLP255 T01280089

More Conditions Fewer Conditions

Pressure 30.29 in
Visibility 10.0 miles
Clouds Clear
Dew Point 47 °F
Humidity 73%
Rainfall 0.00 in
Snow Depth Not available.
UV 0 out of 12
Pollen 3.00 out of 12
Air Quality Not available.
Flu Activity Not available.
METAR KMSY 270653Z 25009KT 10SM CLR 13/09 A3028 RMK AO2 SLP255 T01280089

More Conditions Fewer Conditions

10-Day Weather Forecast

Almanac

Astronomy

Nov. 27, 2014 Rise Set
Actual Time
Civil Twilight
Nautical Twilight
Astronomical Twilight
Moon
Length of Visible Light
Length of Day
Tomorrow will be .
, % of the Moon is Illuminated

Today's Extremes

State Highs State Lows

Community

WunderPhotos

Upload Photos

1,773,966 photos uploaded!

WunderBlogs® & News

Nearby

Air Quality

  Air Quality AQ Index Pollutant
Not available.

Snow Depth

Station Depth Elevation

Earthquake Activity

City Distance Mag. Time & Date
Minimum magnitude displayed is 2.5.

Coastal Water Temperatures

Place Temperature

Nearby Weather Stations